Kezdőlap
METAR-TAF:

METAR-TAF

Repülőterek :

Perry Stokes Airport

Trinidad, Colorado, Amerikai Egyesült Államok

földrajzi szélesség: 37-16N, földrajzi hosszúság: 104-26W, magasság: 1756 m

Jelenlegi meteorológiai megfigyelések

A jelentés 13 perccel ezelõtt készült, 23:54 UTC
Déli szél 18 kt széllökések: 23 kt
Hőmérséklet 18°C
Páratartalom 22%
Légköri nyomás 1009 hPa
Látótávolság: 16.1 km
Szakadozott felhőzet 11000 lábon

METAR: KTAD 042354Z AUTO 18018G23KT 10SM BKN110 18/M04 A2979 RMK AO2 SLP051 T01831039 10189 20094 56015

Idő: 18:07 (00:07 UTC)


TAF: hiányzik

Meteorológiai megfigyelések és előrejelzések több, mint 4000 repülőtéren (METAR és TAF jelentéseket).

A térképen piros és sárga pontok jelzik az elérhető meteorológiai állomásokat.

Mozgassa az egeret a pont fölött, hogy megjelenjen az állomás neve.

Azután kattintson az időjárási megfigyelések és előrejelzések megtekintéséhez.

A térkép megváltoztatása: kattintson a fekete keresztel jelölt zöld gombra ráközelítéshez, a vonallal jelölt zöld gombra távolításhoz, vagy a zöld nyilakra a szomszédos térképek eléréséhez.


METAR-TAF: